Willamette — WDG2204 — position and weather

sailwx.info

Track history (hours):
 
Tides and Currents Weather Stations Pressure Air Temp Water Temp Dewpoint Dewpoint Depression Visibility Wind Speed Wind Dir Waves Ship Positions

Willamette

Owner: Shaver Transportation Company, Portland, OR. More information available from US FCC via Universal Licensing System and Coast Guard Vessel Documentation Center.

Last reported at 2017-Oct-23 08:00 UTC. Time now 2017-Oct-23 08:27 UTC.
Position N 45°34' W 122°44'.

Length 28 m; draft 4.3 m.

Type: Tug. MMSI: 367513230.

Date/timePositionNaut miles runAvg speedWind from/ knotsBaromVisibWave heightAir tempDewpointWater temp
2017-Oct-23 08:00N 45°34' W 122°44'0 0.4
2017-Oct-23 07:30N 45°34' W 122°44'0 0.0
2017-Oct-23 07:00N 45°34' W 122°44'0 0.0
2017-Oct-23 06:30N 45°34' W 122°44'0 0.0
2017-Oct-23 06:01N 45°34' W 122°44'0 0.0
2017-Oct-23 05:30N 45°34' W 122°44'0 0.0
2017-Oct-23 05:01N 45°34' W 122°44'0 0.0
2017-Oct-23 04:30N 45°34' W 122°44'0 0.0
2017-Oct-23 04:00N 45°34' W 122°44'0 0.0
2017-Oct-23 03:30N 45°34' W 122°44'0 0.0
2017-Oct-23 03:01N 45°34' W 122°44'0 0.1
2017-Oct-23 02:30N 45°34' W 122°44'0 0.0
2017-Oct-23 02:00N 45°34' W 122°44'0 0.0
2017-Oct-23 01:31N 45°34' W 122°44'0 0.1
2017-Oct-23 01:01N 45°34' W 122°44'3 5.3
2017-Oct-23 00:31N 45°32' W 122°41'0 0.2
2017-Oct-23 00:00N 45°32' W 122°41'1 2.8
2017-Oct-22 23:30N 45°33' W 122°42'1 2.3
2017-Oct-22 23:01N 45°34' W 122°44'0 0.7
2017-Oct-22 22:31N 45°34' W 122°44'0 0.1
2017-Oct-22 22:00N 45°34' W 122°44'0 0.2
2017-Oct-22 21:31N 45°34' W 122°44'0 0.6
2017-Oct-22 21:01N 45°34' W 122°44'1 1.2
2017-Oct-22 20:31N 45°34' W 122°45'1 2.1
2017-Oct-22 20:00N 45°34' W 122°44'0 0.0
2017-Oct-22 19:30N 45°34' W 122°44'0 0.0
2017-Oct-22 19:00N 45°34' W 122°44'0 0.0
2017-Oct-22 18:30N 45°34' W 122°44'0 0.0
2017-Oct-22 18:01N 45°34' W 122°44'0 0.0
2017-Oct-22 17:30N 45°34' W 122°44'0 0.0
2017-Oct-22 17:00N 45°34' W 122°44'0 0.0
2017-Oct-22 16:30N 45°34' W 122°44'1 1.8
2017-Oct-22 16:00N 45°34' W 122°44'3 5.6
2017-Oct-22 15:30N 45°36' W 122°47'3 5.7
2017-Oct-22 15:01N 45°39' W 122°45'0 0.9
2017-Oct-22 14:30N 45°39' W 122°45'0 0.1
2017-Oct-22 14:00N 45°39' W 122°45'0 0.1
2017-Oct-22 13:31N 45°39' W 122°45'0 0.0
2017-Oct-22 13:00N 45°39' W 122°45'1 1.9
2017-Oct-22 12:30N 45°39' W 122°46'4 8.5
2017-Oct-22 12:00N 45°44' W 122°46'4 8.5
2017-Oct-22 11:31N 45°48' W 122°47'4 8.0
2017-Oct-22 11:00N 45°52' W 122°47'4 7.8
2017-Oct-22 10:31N 45°56' W 122°48'4 7.4
2017-Oct-22 10:01N 45°59' W 122°50'1 1.5
2017-Oct-22 09:31N 45°60' W 122°51'4 7.1
2017-Oct-22 09:01N 46°03' W 122°53'3 6.4
2017-Oct-22 08:30N 46°05' W 122°56'1 2.8
2017-Oct-22 08:00N 46°05' W 122°54'3 5.6
2017-Oct-22 07:30N 46°02' W 122°53'1 1.5
2017-Oct-22 07:01N 46°02' W 122°52'0 0.1
2017-Oct-22 06:31N 46°02' W 122°52'0 0.5
2017-Oct-22 06:00N 46°02' W 122°52'0 0.1
2017-Oct-22 05:30N 46°02' W 122°52'0 0.0
2017-Oct-22 05:01N 46°02' W 122°52'0 0.1
2017-Oct-22 04:30N 46°02' W 122°52'0 0.0
2017-Oct-22 04:00N 46°02' W 122°52'0 0.1
2017-Oct-22 03:28N 46°02' W 122°52'0 0.2
2017-Oct-22 03:00N 46°02' W 122°52'0 0.5
2017-Oct-22 02:31N 46°01' W 122°52'2 3.3
2017-Oct-22 02:00N 46°03' W 122°53'0 0.7
2017-Oct-22 01:30N 46°03' W 122°53'0 0.0
2017-Oct-22 01:00N 46°03' W 122°53'4 7.3
2017-Oct-22 00:31N 45°59' W 122°51'4 8.5
2017-Oct-22 00:01N 45°56' W 122°48'4 8.8
2017-Oct-21 23:31N 45°51' W 122°47'5 9.0
2017-Oct-21 23:00N 45°47' W 122°46'5 9.8
2017-Oct-21 22:30N 45°42' W 122°46'3 6.7
2017-Oct-21 22:01N 45°39' W 122°45'0 0.0
2017-Oct-21 21:30N 45°39' W 122°45'0 0.0
2017-Oct-21 21:01N 45°39' W 122°45'0 0.0
2017-Oct-21 20:30N 45°39' W 122°45'0 0.0
2017-Oct-21 20:00N 45°39' W 122°45'0 0.0
2017-Oct-21 19:30N 45°39' W 122°45'0 0.0
2017-Oct-21 19:01N 45°39' W 122°45'0 0.1
2017-Oct-21 18:31N 45°39' W 122°45'1 2.2
2017-Oct-21 18:01N 45°38' W 122°44'0 0.0
2017-Oct-21 17:30N 45°38' W 122°44'0 0.0
2017-Oct-21 17:00N 45°38' W 122°44'0 0.0
2017-Oct-21 16:30N 45°38' W 122°44'0 0.1
2017-Oct-21 16:00N 45°38' W 122°44'1 1.6
2017-Oct-21 15:30N 45°39' W 122°45'0 0.0
2017-Oct-21 15:00N 45°39' W 122°45'3 2.7
2017-Oct-21 14:00N 45°41' W 122°46'2 3.5
2017-Oct-21 13:30N 45°39' W 122°46'4 7.0
2017-Oct-21 13:00N 45°36' W 122°47'4 8.2
2017-Oct-21 12:31N 45°33' W 122°42'1 2.8
2017-Oct-21 12:00N 45°32' W 122°41'1 2.1
2017-Oct-21 11:30N 45°33' W 122°42'4 7.2
2017-Oct-21 11:00N 45°35' W 122°46'3 6.6
2017-Oct-21 10:30N 45°38' W 122°47'2 3.1
2017-Oct-21 10:00N 45°39' W 122°45'0 0.0
2017-Oct-21 09:31N 45°39' W 122°45'0 0.0
2017-Oct-21 09:01N 45°39' W 122°45'0 0.0
2017-Oct-21 08:30N 45°39' W 122°45'0 0.0
2017-Oct-21 08:00N 45°39' W 122°45'0 0.0
2017-Oct-21 07:30N 45°39' W 122°45'0 0.2
2017-Oct-21 07:00N 45°39' W 122°45'2 4.3
2017-Oct-21 06:30N 45°38' W 122°42'0 0.4
2017-Oct-21 06:00N 45°38' W 122°42'0 0.4
2017-Oct-21 05:30N 45°38' W 122°42'0 0.1
2017-Oct-21 05:00N 45°38' W 122°42'0 0.0
2017-Oct-21 04:30N 45°38' W 122°42'0 0.0
2017-Oct-21 04:00N 45°38' W 122°42'0 0.0
2017-Oct-21 03:31N 45°38' W 122°42'0 0.0
2017-Oct-21 03:00N 45°38' W 122°42'0 0.0
2017-Oct-21 02:30N 45°38' W 122°42'0 0.0
2017-Oct-21 02:00N 45°38' W 122°42'2 4.1
2017-Oct-21 01:31N 45°39' W 122°44'0 0.3
2017-Oct-21 01:00N 45°39' W 122°44'2 4.5
2017-Oct-21 00:30N 45°40' W 122°46'0 0.4
2017-Oct-20 23:41N 45°40' W 122°46'0 0.0
2017-Oct-20 23:22N 45°40' W 122°46'0 0.0
2017-Oct-20 23:01N 45°40' W 122°46'1 1.1
2017-Oct-20 22:30N 45°40' W 122°46'2 4.6
2017-Oct-20 22:00N 45°38' W 122°43'0 0.1
2017-Oct-20 21:31N 45°38' W 122°43'0 0.0
2017-Oct-20 21:01N 45°38' W 122°43'1 1.3
2017-Oct-20 20:31N 45°39' W 122°44'3 5.4
2017-Oct-20 20:00N 45°37' W 122°47'5 8.5
2017-Oct-20 19:28N 45°34' W 122°44'0 0.2
2017-Oct-20 19:00N 45°34' W 122°44'0 0.1
2017-Oct-20 18:31N 45°34' W 122°44'0 0.9
2017-Oct-20 18:00N 45°34' W 122°44'0 0.6
2017-Oct-20 17:30N 45°34' W 122°43'0 0.0
2017-Oct-20 17:00N 45°34' W 122°43'0 0.2
2017-Oct-20 16:30N 45°34' W 122°44'0 0.2
2017-Oct-20 16:00N 45°34' W 122°44'4 7.1
2017-Oct-20 15:30N 45°37' W 122°47'3 5.6
2017-Oct-20 15:00N 45°39' W 122°45'0 0.1
2017-Oct-20 14:01N 45°39' W 122°45'1 1.5
2017-Oct-20 13:31N 45°39' W 122°46'0 0.2
2017-Oct-20 13:00N 45°39' W 122°46'0 0.2
2017-Oct-20 12:31N 45°39' W 122°46'0 0.0
2017-Oct-20 12:01N 45°39' W 122°46'0 0.1
2017-Oct-20 11:30N 45°39' W 122°46'0 0.1
2017-Oct-20 11:00N 45°39' W 122°46'0 0.1
2017-Oct-20 10:30N 45°39' W 122°46'0 0.1
2017-Oct-20 10:01N 45°39' W 122°46'0 0.0
2017-Oct-20 09:31N 45°39' W 122°46'0 0.0
2017-Oct-20 09:01N 45°39' W 122°46'0 0.0
2017-Oct-20 08:30N 45°39' W 122°46'0 0.1
2017-Oct-20 08:00N 45°39' W 122°46'0 0.0
2017-Oct-20 07:31N 45°39' W 122°46'0 0.0
2017-Oct-20 07:01N 45°39' W 122°46'0 0.1
2017-Oct-20 06:31N 45°39' W 122°46'0 0.1
2017-Oct-20 06:01N 45°39' W 122°46'0 0.1
2017-Oct-20 05:31N 45°39' W 122°46'0 0.1
2017-Oct-20 05:00N 45°39' W 122°46'0 0.1
2017-Oct-20 04:30N 45°39' W 122°46'0 0.1
2017-Oct-20 04:01N 45°39' W 122°46'0 0.0
2017-Oct-20 03:31N 45°39' W 122°46'0 0.1
2017-Oct-20 03:00N 45°39' W 122°46'0 0.0
2017-Oct-20 02:30N 45°39' W 122°46'0 0.0
2017-Oct-20 02:00N 45°39' W 122°46'0 0.1
2017-Oct-20 01:30N 45°39' W 122°46'0 0.1
2017-Oct-20 01:01N 45°39' W 122°46'0 0.0
2017-Oct-20 00:30N 45°39' W 122°46'0 0.0
2017-Oct-20 00:00N 45°39' W 122°46'0 0.1
2017-Oct-19 23:30N 45°39' W 122°46'2 4.1
2017-Oct-19 23:01N 45°38' W 122°43'1 2.2
2017-Oct-19 22:31N 45°39' W 122°44'3 4.9
2017-Oct-19 21:59N 45°37' W 122°47'4 8.2
2017-Oct-19 21:31N 45°34' W 122°44'0 0.5
2017-Oct-19 21:01N 45°34' W 122°44'0 0.1
2017-Oct-19 20:30N 45°34' W 122°44'0 0.1
2017-Oct-19 20:01N 45°34' W 122°44'0 0.0
2017-Oct-19 19:30N 45°34' W 122°44'2 4.7
2017-Oct-19 19:00N 45°36' W 122°46'4 7.1
2017-Oct-19 18:30N 45°39' W 122°46'1 2.0
2017-Oct-19 18:01N 45°39' W 122°45'0 0.0
2017-Oct-19 17:31N 45°39' W 122°45'0 0.0
2017-Oct-19 17:00N 45°39' W 122°45'0 0.0
2017-Oct-19 16:31N 45°39' W 122°45'0 0.0
2017-Oct-19 16:00N 45°39' W 122°45'0 0.0
2017-Oct-19 15:31N 45°39' W 122°45'0 0.0
2017-Oct-19 15:00N 45°39' W 122°45'0 0.0
2017-Oct-19 14:30N 45°39' W 122°45'0 0.0
2017-Oct-19 13:52N 45°39' W 122°45'0 0.0
2017-Oct-19 13:30N 45°39' W 122°45'0 0.0
2017-Oct-19 13:01N 45°39' W 122°45'0 0.0
2017-Oct-19 12:30N 45°39' W 122°45'0 0.0
2017-Oct-19 12:01N 45°39' W 122°45'2 3.4
2017-Oct-19 11:31N 45°38' W 122°47'2 4.8
2017-Oct-19 11:01N 45°36' W 122°47'0 0.0
2017-Oct-19 10:30N 45°36' W 122°47'2 4.1
2017-Oct-19 09:57N 45°34' W 122°44'0 0.6
2017-Oct-19 09:30N 45°34' W 122°44'0 0.7
2017-Oct-19 09:01N 45°34' W 122°45'2 4.1
2017-Oct-19 08:30N 45°36' W 122°47'0 0.0
2017-Oct-19 08:00N 45°36' W 122°47'0 0.0
2017-Oct-19 07:30N 45°36' W 122°47'1 2.9
2017-Oct-19 07:00N 45°37' W 122°47'2 4.4
2017-Oct-19 06:31N 45°39' W 122°45'0 0.2
2017-Oct-19 06:01N 45°39' W 122°45'0 0.9
2017-Oct-19 05:30N 45°39' W 122°45'0 0.0
2017-Oct-19 04:50N 45°39' W 122°45'1 2.3
2017-Oct-19 04:31N 45°39' W 122°45'0 0.8
2017-Oct-19 04:00N 45°39' W 122°45'0 0.8
2017-Oct-19 03:31N 45°39' W 122°46'0 0.7
2017-Oct-19 03:00N 45°39' W 122°46'1 1.4
2017-Oct-19 02:30N 45°39' W 122°46'1 1.7
2017-Oct-19 01:59N 45°39' W 122°45'0 0.0
2017-Oct-19 01:30N 45°39' W 122°45'0 0.0
2017-Oct-19 01:01N 45°39' W 122°45'0 0.0
2017-Oct-19 00:31N 45°39' W 122°45'0 0.0
2017-Oct-19 00:00N 45°39' W 122°45'0 0.0
2017-Oct-18 23:30N 45°39' W 122°45'0 0.0
2017-Oct-18 23:00N 45°39' W 122°45'0 0.0
2017-Oct-18 22:31N 45°39' W 122°45'0 0.0
2017-Oct-18 22:00N 45°39' W 122°45'0 0.0
2017-Oct-18 21:26N 45°39' W 122°45'0 0.0
2017-Oct-18 21:00N 45°39' W 122°45'0 0.0
2017-Oct-18 20:31N 45°39' W 122°45'0 0.0
2017-Oct-18 20:00N 45°39' W 122°45'0 0.0
2017-Oct-18 19:30N 45°39' W 122°45'0 0.0
2017-Oct-18 19:01N 45°39' W 122°45'0 0.0
2017-Oct-18 18:30N 45°39' W 122°45'0 0.0
2017-Oct-18 18:01N 45°39' W 122°45'0 0.0
2017-Oct-18 17:31N 45°39' W 122°45'1 1.9
2017-Oct-18 17:00N 45°39' W 122°46'1 2.2
2017-Oct-18 16:30N 45°38' W 122°47'1 1.9
2017-Oct-18 15:52N 45°39' W 122°46'1 2.1
2017-Oct-18 15:25N 45°39' W 122°45'0 0.0
2017-Oct-18 15:00N 45°39' W 122°45'0 0.0
2017-Oct-18 14:00N 45°39' W 122°45'0 0.0
2017-Oct-18 13:30N 45°39' W 122°45'0 0.0
2017-Oct-18 12:57N 45°39' W 122°45'0 0.0
2017-Oct-18 12:30N 45°39' W 122°45'0 0.0
2017-Oct-18 12:00N 45°39' W 122°45'0 0.0
2017-Oct-18 11:31N 45°39' W 122°45'0 0.0
2017-Oct-18 11:00N 45°39' W 122°45'0 0.0
2017-Oct-18 10:30N 45°39' W 122°45'0 0.0
2017-Oct-18 10:01N 45°39' W 122°45'2 3.8
2017-Oct-18 09:31N 45°38' W 122°47'4 7.9
2017-Oct-18 09:00N 45°34' W 122°45'0 0.2
2017-Oct-18 08:30N 45°34' W 122°44'4 7.8
2017-Oct-18 08:01N 45°38' W 122°47'3 6.8
2017-Oct-18 07:31N 45°41' W 122°47'3 6.8
2017-Oct-18 07:00N 45°44' W 122°46'3 6.8
2017-Oct-18 06:30N 45°48' W 122°47'4 6.4
2017-Oct-18 05:51N 45°52' W 122°47'2 6.2
2017-Oct-18 05:30N 45°54' W 122°48'3 6.3
2017-Oct-18 05:00N 45°57' W 122°48'3 5.1
2017-Oct-18 04:30N 45°59' W 122°50'0 0.1
2017-Oct-18 04:00N 45°59' W 122°50'0 0.0
2017-Oct-18 03:30N 45°59' W 122°50'0 0.0
2017-Oct-18 03:01N 45°59' W 122°50'0 0.0
2017-Oct-18 02:30N 45°59' W 122°50'2 3.1
2017-Oct-18 02:00N 46°01' W 122°51'1 2.7
2017-Oct-18 01:30N 46°02' W 122°52'0 0.0
2017-Oct-18 01:01N 46°02' W 122°52'0 0.0
2017-Oct-18 00:30N 46°02' W 122°52'2 4.2
2017-Oct-18 00:00N 46°04' W 122°53'3 5.2
2017-Oct-17 23:30N 46°05' W 122°56'0 0.0
2017-Oct-17 23:01N 46°05' W 122°56'0 0.0
2017-Oct-17 22:30N 46°05' W 122°56'0 0.0
2017-Oct-17 22:00N 46°05' W 122°56'0 0.0
2017-Oct-17 21:30N 46°05' W 122°56'0 0.0
2017-Oct-17 21:00N 46°05' W 122°56'0 0.0
2017-Oct-17 20:30N 46°05' W 122°56'1 2.3
2017-Oct-17 20:00N 46°06' W 122°57'0 0.0
2017-Oct-17 19:30N 46°06' W 122°57'1 1.1
2017-Oct-17 19:01N 46°06' W 122°56'0 0.1
2017-Oct-17 18:31N 46°06' W 122°56'0 0.0
2017-Oct-17 18:00N 46°06' W 122°56'1 1.3
2017-Oct-17 17:30N 46°05' W 122°56'0 0.0
2017-Oct-17 17:01N 46°05' W 122°56'0 0.0
2017-Oct-17 16:30N 46°05' W 122°56'0 0.0
2017-Oct-17 16:00N 46°05' W 122°56'0 0.0
2017-Oct-17 15:30N 46°05' W 122°56'0 0.0
2017-Oct-17 15:00N 46°05' W 122°56'0 0.0
2017-Oct-17 14:30N 46°05' W 122°56'0 0.0
2017-Oct-17 13:30N 46°05' W 122°56'0 0.0
2017-Oct-17 13:00N 46°05' W 122°56'0 0.0
2017-Oct-17 12:31N 46°05' W 122°56'0 0.0
2017-Oct-17 12:00N 46°05' W 122°56'0 0.0
2017-Oct-17 11:30N 46°05' W 122°56'0 0.0
2017-Oct-17 11:01N 46°05' W 122°56'0 0.0
2017-Oct-17 10:30N 46°05' W 122°56'0 0.0
2017-Oct-17 10:01N 46°05' W 122°56'0 0.0
2017-Oct-17 09:31N 46°05' W 122°56'0 0.0
2017-Oct-17 09:01N 46°05' W 122°56'0 0.0
2017-Oct-17 08:30N 46°05' W 122°56'0 0.0
2017-Oct-17 08:00N 46°05' W 122°56'0 0.0
2017-Oct-17 07:31N 46°05' W 122°56'0 0.0
2017-Oct-17 07:00N 46°05' W 122°56'0 0.0
2017-Oct-17 06:31N 46°05' W 122°56'0 0.0
2017-Oct-17 06:01N 46°05' W 122°56'0 0.0
2017-Oct-17 05:30N 46°05' W 122°56'0 0.0
2017-Oct-17 05:00N 46°05' W 122°56'0 0.0
2017-Oct-17 04:30N 46°05' W 122°56'0 0.0
2017-Oct-17 04:00N 46°05' W 122°56'0 0.0
2017-Oct-17 03:31N 46°05' W 122°56'0 0.0
2017-Oct-17 03:00N 46°05' W 122°56'0 0.0
2017-Oct-17 02:31N 46°05' W 122°56'0 0.0
2017-Oct-17 02:00N 46°05' W 122°56'0 0.0
2017-Oct-17 01:30N 46°05' W 122°56'0 0.0
2017-Oct-17 01:00N 46°05' W 122°56'0 0.0
2017-Oct-17 00:30N 46°05' W 122°56'0 0.0
2017-Oct-17 00:01N 46°05' W 122°56'0 0.0
2017-Oct-16 23:31N 46°05' W 122°56'0 0.0
2017-Oct-16 23:00N 46°05' W 122°56'0 0.0
2017-Oct-16 22:30N 46°05' W 122°56'0 0.0
2017-Oct-16 22:00N 46°05' W 122°56'0 0.0
2017-Oct-16 21:30N 46°05' W 122°56'0 0.0
2017-Oct-16 21:01N 46°05' W 122°56'0 0.0
2017-Oct-16 20:31N 46°05' W 122°56'0 0.0
2017-Oct-16 20:00N 46°05' W 122°56'0 0.0
2017-Oct-16 19:30N 46°05' W 122°56'0 0.0
2017-Oct-16 19:01N 46°05' W 122°56'0 0.0
2017-Oct-16 18:30N 46°05' W 122°56'0 0.0
2017-Oct-16 18:00N 46°05' W 122°56'0 0.0
2017-Oct-16 17:31N 46°05' W 122°56'0 0.0
2017-Oct-16 17:00N 46°05' W 122°56'0 0.0
2017-Oct-16 16:31N 46°05' W 122°56'0 0.0
2017-Oct-16 16:01N 46°05' W 122°56'0 0.0
2017-Oct-16 15:31N 46°05' W 122°56'0 0.0
2017-Oct-16 15:00N 46°05' W 122°56'0 0.0
2017-Oct-16 14:00N 46°05' W 122°56'0 0.0
2017-Oct-16 13:31N 46°05' W 122°56'0 0.0
2017-Oct-16 13:01N 46°05' W 122°56'0 0.0
2017-Oct-16 12:31N 46°05' W 122°56'0 0.0
2017-Oct-16 12:01N 46°05' W 122°56'0 0.0
2017-Oct-16 11:30N 46°05' W 122°56'0 0.0
2017-Oct-16 11:00N 46°05' W 122°56'0 0.0
2017-Oct-16 10:30N 46°05' W 122°56'0 0.0
2017-Oct-16 10:00N 46°05' W 122°56'0 0.0
2017-Oct-16 09:30N 46°05' W 122°56'0 0.0
2017-Oct-16 09:01N 46°05' W 122°56'0 0.0
2017-Oct-16 08:31N 46°05' W 122°56'0 0.0
2017-Oct-16 08:00N 46°05' W 122°56'0 0.0
2017-Oct-16 07:22N 46°05' W 122°56'0 0.0
2017-Oct-16 07:01N 46°05' W 122°56'0 0.0
2017-Oct-16 06:31N 46°05' W 122°56'0 0.0
2017-Oct-16 06:01N 46°05' W 122°56'0 0.0
2017-Oct-16 05:30N 46°05' W 122°56'0 0.0
2017-Oct-16 05:01N 46°05' W 122°56'0 0.0
2017-Oct-16 04:31N 46°05' W 122°56'1 3.0
2017-Oct-16 04:00N 46°06' W 122°58'1 1.6
2017-Oct-16 03:31N 46°06' W 122°57'0 0.3
2017-Oct-16 03:00N 46°06' W 122°57'0 0.3
2017-Oct-16 02:30N 46°06' W 122°57'0 0.3
2017-Oct-16 02:00N 46°06' W 122°56'0 0.8
2017-Oct-16 01:31N 46°06' W 122°57'0 0.8
2017-Oct-16 01:00N 46°06' W 122°56'0 0.2
2017-Oct-16 00:31N 46°06' W 122°56'0 0.3
2017-Oct-16 00:01N 46°06' W 122°56'0 0.0
2017-Oct-15 23:30N 46°06' W 122°56'0 0.0
2017-Oct-15 23:00N 46°06' W 122°56'0 0.0
2017-Oct-15 22:31N 46°06' W 122°56'0 0.1
2017-Oct-15 22:00N 46°06' W 122°56'0 0.0
2017-Oct-15 21:31N 46°06' W 122°56'0 0.5
2017-Oct-15 21:00N 46°06' W 122°57'1 2.7
2017-Oct-15 20:30N 46°07' W 122°58'1 1.7
2017-Oct-15 20:00N 46°06' W 122°57'1 1.0
2017-Oct-15 19:25N 46°06' W 122°57'1 1.8
2017-Oct-15 19:00N 46°05' W 122°56'0 0.0
2017-Oct-15 18:30N 46°05' W 122°56'3 6.7
2017-Oct-15 18:01N 46°03' W 122°53'1 2.9
2017-Oct-15 17:30N 46°02' W 122°52'0 0.3
2017-Oct-15 17:00N 46°02' W 122°52'1 3.0
2017-Oct-15 16:31N 46°00' W 122°51'1 2.9
2017-Oct-15 16:00N 45°59' W 122°50'0 0.0
2017-Oct-15 15:30N 45°59' W 122°50'0 0.0
2017-Oct-15 15:00N 45°59' W 122°50'0 0.0
2017-Oct-15 13:54N 45°59' W 122°50'0 0.0
2017-Oct-15 13:31N 45°59' W 122°50'0 0.0
2017-Oct-15 13:00N 45°59' W 122°50'0 0.0
2017-Oct-15 12:30N 45°59' W 122°50'0 0.0
2017-Oct-15 12:00N 45°59' W 122°50'0 0.0
2017-Oct-15 11:30N 45°59' W 122°50'0 0.0
2017-Oct-15 11:00N 45°59' W 122°50'0 0.0
2017-Oct-15 10:30N 45°59' W 122°50'0 0.0
2017-Oct-15 10:01N 45°59' W 122°50'0 0.0
2017-Oct-15 09:31N 45°59' W 122°50'0 0.0
2017-Oct-15 09:01N 45°59' W 122°50'0 0.0
2017-Oct-15 08:30N 45°59' W 122°50'0 0.0
2017-Oct-15 08:01N 45°59' W 122°50'0 0.0
2017-Oct-15 07:30N 45°59' W 122°50'0 0.0
2017-Oct-15 07:00N 45°59' W 122°50'0 0.0
2017-Oct-15 06:30N 45°59' W 122°50'0 0.1
2017-Oct-15 06:00N 45°59' W 122°50'0 0.0
2017-Oct-15 05:30N 45°59' W 122°50'0 0.0
2017-Oct-15 05:00N 45°59' W 122°50'0 0.0
2017-Oct-15 04:30N 45°59' W 122°50'0 0.0
2017-Oct-15 04:01N 45°59' W 122°50'0 0.0
2017-Oct-15 03:30N 45°59' W 122°50'0 0.0
2017-Oct-15 03:00N 45°59' W 122°50'0 0.0
2017-Oct-15 02:30N 45°59' W 122°50'0 0.0
2017-Oct-15 01:41N 45°59' W 122°50'0 0.0
2017-Oct-15 01:20N 45°59' W 122°50'0 0.0
2017-Oct-15 01:01N 45°59' W 122°50'0 0.0
2017-Oct-15 00:30N 45°59' W 122°50'0 0.0
2017-Oct-15 00:00N 45°59' W 122°50'0 0.0
2017-Oct-14 23:31N 45°59' W 122°50'0 0.0
2017-Oct-14 22:53N 45°59' W 122°50'0 0.2
2017-Oct-14 22:30N 45°59' W 122°50'0 0.4
2017-Oct-14 22:00N 45°59' W 122°50'4 8.3
2017-Oct-14 21:30N 45°55' W 122°49'4 8.1
2017-Oct-14 21:00N 45°51' W 122°47'4 7.6
2017-Oct-14 20:31N 45°47' W 122°47'4 7.8
2017-Oct-14 20:00N 45°44' W 122°46'4 7.8
2017-Oct-14 19:31N 45°40' W 122°46'1 2.5
2017-Oct-14 19:00N 45°39' W 122°45'3 7.0
2017-Oct-14 18:30N 45°42' W 122°46'3 6.7
2017-Oct-14 18:00N 45°45' W 122°46'3 6.6
2017-Oct-14 17:31N 45°48' W 122°48'3 6.2
2017-Oct-14 17:01N 45°52' W 122°47'3 6.1
2017-Oct-14 16:31N 45°54' W 122°49'3 5.9
2017-Oct-14 16:00N 45°57' W 122°49'3 6.8
2017-Oct-14 15:30N 46°00' W 122°51'1 2.4
2017-Oct-14 15:01N 46°01' W 122°52'3 6.8
2017-Oct-14 14:30N 46°05' W 122°54'2 4.7
2017-Oct-14 14:01N 46°06' W 122°57'0 0.6
2017-Oct-14 13:30N 46°06' W 122°57'2 4.2
2017-Oct-14 13:01N 46°07' W 122°59'2 3.1
2017-Oct-14 12:31N 46°06' W 122°58'0 0.0
2017-Oct-14 12:01N 46°06' W 122°58'0 0.1
2017-Oct-14 11:30N 46°06' W 122°58'0 0.0
2017-Oct-14 11:00N 46°06' W 122°58'0 0.0
2017-Oct-14 10:31N 46°06' W 122°58'0 0.0
2017-Oct-14 10:01N 46°06' W 122°58'0 0.0
2017-Oct-14 09:30N 46°06' W 122°58'0 0.0
2017-Oct-14 09:01N 46°06' W 122°58'0 0.0
2017-Oct-14 08:31N 46°06' W 122°58'0 0.0
2017-Oct-14 08:00N 46°06' W 122°58'0 0.1
2017-Oct-14 07:30N 46°06' W 122°58'3 5.1
2017-Oct-14 07:01N 46°08' W 123°00'4 8.0
2017-Oct-14 06:30N 46°10' W 123°05'4 7.6
2017-Oct-14 06:00N 46°11' W 123°11'0 0.2
2017-Oct-14 05:30N 46°11' W 123°11'3 6.4
2017-Oct-14 05:00N 46°11' W 123°06'5 8.3
2017-Oct-14 04:27N 46°08' W 123°01'3 6.1
2017-Oct-14 04:00N 46°06' W 122°58'0 0.2
2017-Oct-14 03:21N 46°06' W 122°57'1 4.2
2017-Oct-14 03:01N 46°05' W 122°56'0 0.0
2017-Oct-14 02:30N 46°05' W 122°56'0 0.0
2017-Oct-14 02:00N 46°05' W 122°56'0 0.0
2017-Oct-14 01:30N 46°05' W 122°56'0 0.0
2017-Oct-14 01:00N 46°05' W 122°56'0 0.0
2017-Oct-14 00:31N 46°05' W 122°56'0 0.0
2017-Oct-14 00:00N 46°05' W 122°56'0 0.0
2017-Oct-13 23:31N 46°05' W 122°56'0 0.0
2017-Oct-13 23:00N 46°05' W 122°56'0 0.0
2017-Oct-13 22:30N 46°05' W 122°56'0 0.0
2017-Oct-13 22:00N 46°05' W 122°56'0 0.0
2017-Oct-13 21:16N 46°05' W 122°56'0 0.0
2017-Oct-13 21:00N 46°05' W 122°56'0 0.0
2017-Oct-13 20:30N 46°05' W 122°56'0 0.0
2017-Oct-13 20:00N 46°05' W 122°56'4 7.2
2017-Oct-13 19:30N 46°02' W 122°53'4 8.1
2017-Oct-13 19:01N 45°59' W 122°50'0 0.3
2017-Oct-13 18:21N 45°59' W 122°50'0 0.1
2017-Oct-13 18:00N 45°59' W 122°50'0 0.1
2017-Oct-13 17:14N 45°59' W 122°50'0 0.1
2017-Oct-13 17:00N 45°59' W 122°50'0 0.0
2017-Oct-13 16:31N 45°59' W 122°50'0 0.0
2017-Oct-13 16:01N 45°59' W 122°50'0 0.2
2017-Oct-13 15:30N 45°59' W 122°50'0 0.1
2017-Oct-13 15:00N 45°59' W 122°50'0 0.0
2017-Oct-13 14:30N 45°59' W 122°50'3 4.1
2017-Oct-13 13:51N 46°01' W 122°52'0 1.0
2017-Oct-13 13:30N 46°02' W 122°53'0 0.3
2017-Oct-13 12:50N 46°02' W 122°52'0 0.3
2017-Oct-13 12:30N 46°02' W 122°52'0 0.0
2017-Oct-13 11:56N 46°02' W 122°52'0 0.0
2017-Oct-13 11:30N 46°02' W 122°52'4 7.6
2017-Oct-13 11:00N 45°58' W 122°50'611.1
2017-Oct-13 10:30N 45°53' W 122°48'510.7
2017-Oct-13 10:00N 45°48' W 122°47'810.4
2017-Oct-13 09:15N 45°40' W 122°46'1 6.1
2017-Oct-13 09:01N 45°39' W 122°45'0 0.2
2017-Oct-13 08:30N 45°39' W 122°45'  
Track history (hours):
 
Tides and Currents Weather Stations Pressure Air Temp Water Temp Dewpoint Dewpoint Depression Visibility Wind Speed Wind Dir Waves Ship Positions

Willamette

Owner: Shaver Transportation Company, Portland, OR. More information available from US FCC via Universal Licensing System and Coast Guard Vessel Documentation Center.

Last reported at 2017-Oct-23 08:00 UTC. Time now 2017-Oct-23 08:27 UTC.
Position N 45°34' W 122°44'.

Length 28 m; draft 4.3 m.

Type: Tug. MMSI: 367513230.

Date/timePositionNaut miles runAvg speedWind from/ knotsBaromVisibWave heightAir tempDewpointWater temp
2017-Oct-23 08:00N 45°34' W 122°44'0 0.4
2017-Oct-23 07:30N 45°34' W 122°44'0 0.0
2017-Oct-23 07:00N 45°34' W 122°44'0 0.0
2017-Oct-23 06:30N 45°34' W 122°44'0 0.0
2017-Oct-23 06:01N 45°34' W 122°44'0 0.0
2017-Oct-23 05:30N 45°34' W 122°44'0 0.0
2017-Oct-23 05:01N 45°34' W 122°44'0 0.0
2017-Oct-23 04:30N 45°34' W 122°44'0 0.0
2017-Oct-23 04:00N 45°34' W 122°44'0 0.0
2017-Oct-23 03:30N 45°34' W 122°44'0 0.0
2017-Oct-23 03:01N 45°34' W 122°44'0 0.1
2017-Oct-23 02:30N 45°34' W 122°44'0 0.0
2017-Oct-23 02:00N 45°34' W 122°44'0 0.0
2017-Oct-23 01:31N 45°34' W 122°44'0 0.1
2017-Oct-23 01:01N 45°34' W 122°44'3 5.3
2017-Oct-23 00:31N 45°32' W 122°41'0 0.2
2017-Oct-23 00:00N 45°32' W 122°41'1 2.8
2017-Oct-22 23:30N 45°33' W 122°42'1 2.3
2017-Oct-22 23:01N 45°34' W 122°44'0 0.7
2017-Oct-22 22:31N 45°34' W 122°44'0 0.1
2017-Oct-22 22:00N 45°34' W 122°44'0 0.2
2017-Oct-22 21:31N 45°34' W 122°44'0 0.6
2017-Oct-22 21:01N 45°34' W 122°44'1 1.2
2017-Oct-22 20:31N 45°34' W 122°45'1 2.1
2017-Oct-22 20:00N 45°34' W 122°44'0 0.0
2017-Oct-22 19:30N 45°34' W 122°44'0 0.0
2017-Oct-22 19:00N 45°34' W 122°44'0 0.0
2017-Oct-22 18:30N 45°34' W 122°44'0 0.0
2017-Oct-22 18:01N 45°34' W 122°44'0 0.0
2017-Oct-22 17:30N 45°34' W 122°44'0 0.0
2017-Oct-22 17:00N 45°34' W 122°44'0 0.0
2017-Oct-22 16:30N 45°34' W 122°44'1 1.8
2017-Oct-22 16:00N 45°34' W 122°44'3 5.6
2017-Oct-22 15:30N 45°36' W 122°47'3 5.7
2017-Oct-22 15:01N 45°39' W 122°45'0 0.9
2017-Oct-22 14:30N 45°39' W 122°45'0 0.1
2017-Oct-22 14:00N 45°39' W 122°45'0 0.1
2017-Oct-22 13:31N 45°39' W 122°45'0 0.0
2017-Oct-22 13:00N 45°39' W 122°45'1 1.9
2017-Oct-22 12:30N 45°39' W 122°46'4 8.5
2017-Oct-22 12:00N 45°44' W 122°46'4 8.5
2017-Oct-22 11:31N 45°48' W 122°47'4 8.0
2017-Oct-22 11:00N 45°52' W 122°47'4 7.8
2017-Oct-22 10:31N 45°56' W 122°48'4 7.4
2017-Oct-22 10:01N 45°59' W 122°50'1 1.5
2017-Oct-22 09:31N 45°60' W 122°51'4 7.1
2017-Oct-22 09:01N 46°03' W 122°53'3 6.4
2017-Oct-22 08:30N 46°05' W 122°56'1 2.8
2017-Oct-22 08:00N 46°05' W 122°54'3 5.6
2017-Oct-22 07:30N 46°02' W 122°53'1 1.5
2017-Oct-22 07:01N 46°02' W 122°52'0 0.1
2017-Oct-22 06:31N 46°02' W 122°52'0 0.5
2017-Oct-22 06:00N 46°02' W 122°52'0 0.1
2017-Oct-22 05:30N 46°02' W 122°52'0 0.0
2017-Oct-22 05:01N 46°02' W 122°52'0 0.1
2017-Oct-22 04:30N 46°02' W 122°52'0 0.0
2017-Oct-22 04:00N 46°02' W 122°52'0 0.1
2017-Oct-22 03:28N 46°02' W 122°52'0 0.2
2017-Oct-22 03:00N 46°02' W 122°52'0 0.5
2017-Oct-22 02:31N 46°01' W 122°52'2 3.3
2017-Oct-22 02:00N 46°03' W 122°53'0 0.7
2017-Oct-22 01:30N 46°03' W 122°53'0 0.0
2017-Oct-22 01:00N 46°03' W 122°53'4 7.3
2017-Oct-22 00:31N 45°59' W 122°51'4 8.5
2017-Oct-22 00:01N 45°56' W 122°48'4 8.8
2017-Oct-21 23:31N 45°51' W 122°47'5 9.0
2017-Oct-21 23:00N 45°47' W 122°46'5 9.8
2017-Oct-21 22:30N 45°42' W 122°46'3 6.7
2017-Oct-21 22:01N 45°39' W 122°45'0 0.0
2017-Oct-21 21:30N 45°39' W 122°45'0 0.0
2017-Oct-21 21:01N 45°39' W 122°45'0 0.0
2017-Oct-21 20:30N 45°39' W 122°45'0 0.0
2017-Oct-21 20:00N 45°39' W 122°45'0 0.0
2017-Oct-21 19:30N 45°39' W 122°45'0 0.0
2017-Oct-21 19:01N 45°39' W 122°45'0 0.1
2017-Oct-21 18:31N 45°39' W 122°45'1 2.2
2017-Oct-21 18:01N 45°38' W 122°44'0 0.0
2017-Oct-21 17:30N 45°38' W 122°44'0 0.0
2017-Oct-21 17:00N 45°38' W 122°44'0 0.0
2017-Oct-21 16:30N 45°38' W 122°44'0 0.1
2017-Oct-21 16:00N 45°38' W 122°44'1 1.6
2017-Oct-21 15:30N 45°39' W 122°45'0 0.0
2017-Oct-21 15:00N 45°39' W 122°45'3 2.7
2017-Oct-21 14:00N 45°41' W 122°46'2 3.5
2017-Oct-21 13:30N 45°39' W 122°46'4 7.0
2017-Oct-21 13:00N 45°36' W 122°47'4 8.2
2017-Oct-21 12:31N 45°33' W 122°42'1 2.8
2017-Oct-21 12:00N 45°32' W 122°41'1 2.1
2017-Oct-21 11:30N 45°33' W 122°42'4 7.2
2017-Oct-21 11:00N 45°35' W 122°46'3 6.6
2017-Oct-21 10:30N 45°38' W 122°47'2 3.1
2017-Oct-21 10:00N 45°39' W 122°45'0 0.0
2017-Oct-21 09:31N 45°39' W 122°45'0 0.0
2017-Oct-21 09:01N 45°39' W 122°45'0 0.0
2017-Oct-21 08:30N 45°39' W 122°45'0 0.0
2017-Oct-21 08:00N 45°39' W 122°45'0 0.0
2017-Oct-21 07:30N 45°39' W 122°45'0 0.2
2017-Oct-21 07:00N 45°39' W 122°45'2 4.3
2017-Oct-21 06:30N 45°38' W 122°42'0 0.4
2017-Oct-21 06:00N 45°38' W 122°42'0 0.4
2017-Oct-21 05:30N 45°38' W 122°42'0 0.1
2017-Oct-21 05:00N 45°38' W 122°42'0 0.0
2017-Oct-21 04:30N 45°38' W 122°42'0 0.0
2017-Oct-21 04:00N 45°38' W 122°42'0 0.0
2017-Oct-21 03:31N 45°38' W 122°42'0 0.0
2017-Oct-21 03:00N 45°38' W 122°42'0 0.0
2017-Oct-21 02:30N 45°38' W 122°42'0 0.0
2017-Oct-21 02:00N 45°38' W 122°42'2 4.1
2017-Oct-21 01:31N 45°39' W 122°44'0 0.3
2017-Oct-21 01:00N 45°39' W 122°44'2 4.5
2017-Oct-21 00:30N 45°40' W 122°46'0 0.4
2017-Oct-20 23:41N 45°40' W 122°46'0 0.0
2017-Oct-20 23:22N 45°40' W 122°46'0 0.0
2017-Oct-20 23:01N 45°40' W 122°46'1 1.1
2017-Oct-20 22:30N 45°40' W 122°46'2 4.6
2017-Oct-20 22:00N 45°38' W 122°43'0 0.1
2017-Oct-20 21:31N 45°38' W 122°43'0 0.0
2017-Oct-20 21:01N 45°38' W 122°43'1 1.3
2017-Oct-20 20:31N 45°39' W 122°44'3 5.4
2017-Oct-20 20:00N 45°37' W 122°47'5 8.5
2017-Oct-20 19:28N 45°34' W 122°44'0 0.2
2017-Oct-20 19:00N 45°34' W 122°44'0 0.1
2017-Oct-20 18:31N 45°34' W 122°44'0 0.9
2017-Oct-20 18:00N 45°34' W 122°44'0 0.6
2017-Oct-20 17:30N 45°34' W 122°43'0 0.0
2017-Oct-20 17:00N 45°34' W 122°43'0 0.2
2017-Oct-20 16:30N 45°34' W 122°44'0 0.2
2017-Oct-20 16:00N 45°34' W 122°44'4 7.1
2017-Oct-20 15:30N 45°37' W 122°47'3 5.6
2017-Oct-20 15:00N 45°39' W 122°45'0 0.1
2017-Oct-20 14:01N 45°39' W 122°45'1 1.5
2017-Oct-20 13:31N 45°39' W 122°46'0 0.2
2017-Oct-20 13:00N 45°39' W 122°46'0 0.2
2017-Oct-20 12:31N 45°39' W 122°46'0 0.0
2017-Oct-20 12:01N 45°39' W 122°46'0 0.1
2017-Oct-20 11:30N 45°39' W 122°46'0 0.1
2017-Oct-20 11:00N 45°39' W 122°46'0 0.1
2017-Oct-20 10:30N 45°39' W 122°46'0 0.1
2017-Oct-20 10:01N 45°39' W 122°46'0 0.0
2017-Oct-20 09:31N 45°39' W 122°46'0 0.0
2017-Oct-20 09:01N 45°39' W 122°46'0 0.0
2017-Oct-20 08:30N 45°39' W 122°46'0 0.1
2017-Oct-20 08:00N 45°39' W 122°46'0 0.0
2017-Oct-20 07:31N 45°39' W 122°46'0 0.0
2017-Oct-20 07:01N 45°39' W 122°46'0 0.1
2017-Oct-20 06:31N 45°39' W 122°46'0 0.1
2017-Oct-20 06:01N 45°39' W 122°46'0 0.1
2017-Oct-20 05:31N 45°39' W 122°46'0 0.1
2017-Oct-20 05:00N 45°39' W 122°46'0 0.1
2017-Oct-20 04:30N 45°39' W 122°46'0 0.1
2017-Oct-20 04:01N 45°39' W 122°46'0 0.0
2017-Oct-20 03:31N 45°39' W 122°46'0 0.1
2017-Oct-20 03:00N 45°39' W 122°46'0 0.0
2017-Oct-20 02:30N 45°39' W 122°46'0 0.0
2017-Oct-20 02:00N 45°39' W 122°46'0 0.1
2017-Oct-20 01:30N 45°39' W 122°46'0 0.1
2017-Oct-20 01:01N 45°39' W 122°46'0 0.0
2017-Oct-20 00:30N 45°39' W 122°46'0 0.0
2017-Oct-20 00:00N 45°39' W 122°46'0 0.1
2017-Oct-19 23:30N 45°39' W 122°46'2 4.1
2017-Oct-19 23:01N 45°38' W 122°43'1 2.2
2017-Oct-19 22:31N 45°39' W 122°44'3 4.9
2017-Oct-19 21:59N 45°37' W 122°47'4 8.2
2017-Oct-19 21:31N 45°34' W 122°44'0 0.5
2017-Oct-19 21:01N 45°34' W 122°44'0 0.1
2017-Oct-19 20:30N 45°34' W 122°44'0 0.1
2017-Oct-19 20:01N 45°34' W 122°44'0 0.0
2017-Oct-19 19:30N 45°34' W 122°44'2 4.7
2017-Oct-19 19:00N 45°36' W 122°46'4 7.1
2017-Oct-19 18:30N 45°39' W 122°46'1 2.0
2017-Oct-19 18:01N 45°39' W 122°45'0 0.0
2017-Oct-19 17:31N 45°39' W 122°45'0 0.0
2017-Oct-19 17:00N 45°39' W 122°45'0 0.0
2017-Oct-19 16:31N 45°39' W 122°45'0 0.0
2017-Oct-19 16:00N 45°39' W 122°45'0 0.0
2017-Oct-19 15:31N 45°39' W 122°45'0 0.0
2017-Oct-19 15:00N 45°39' W 122°45'0 0.0
2017-Oct-19 14:30N 45°39' W 122°45'0 0.0
2017-Oct-19 13:52N 45°39' W 122°45'0 0.0
2017-Oct-19 13:30N 45°39' W 122°45'0 0.0
2017-Oct-19 13:01N 45°39' W 122°45'0 0.0
2017-Oct-19 12:30N 45°39' W 122°45'0 0.0
2017-Oct-19 12:01N 45°39' W 122°45'2 3.4
2017-Oct-19 11:31N 45°38' W 122°47'2 4.8
2017-Oct-19 11:01N 45°36' W 122°47'0 0.0
2017-Oct-19 10:30N 45°36' W 122°47'2 4.1
2017-Oct-19 09:57N 45°34' W 122°44'0 0.6
2017-Oct-19 09:30N 45°34' W 122°44'0 0.7
2017-Oct-19 09:01N 45°34' W 122°45'2 4.1
2017-Oct-19 08:30N 45°36' W 122°47'0 0.0
2017-Oct-19 08:00N 45°36' W 122°47'0 0.0
2017-Oct-19 07:30N 45°36' W 122°47'1 2.9
2017-Oct-19 07:00N 45°37' W 122°47'2 4.4
2017-Oct-19 06:31N 45°39' W 122°45'0 0.2
2017-Oct-19 06:01N 45°39' W 122°45'0 0.9
2017-Oct-19 05:30N 45°39' W 122°45'0 0.0
2017-Oct-19 04:50N 45°39' W 122°45'1 2.3
2017-Oct-19 04:31N 45°39' W 122°45'0 0.8
2017-Oct-19 04:00N 45°39' W 122°45'0 0.8
2017-Oct-19 03:31N 45°39' W 122°46'0 0.7
2017-Oct-19 03:00N 45°39' W 122°46'1 1.4
2017-Oct-19 02:30N 45°39' W 122°46'1 1.7
2017-Oct-19 01:59N 45°39' W 122°45'0 0.0
2017-Oct-19 01:30N 45°39' W 122°45'0 0.0
2017-Oct-19 01:01N 45°39' W 122°45'0 0.0
2017-Oct-19 00:31N 45°39' W 122°45'0 0.0
2017-Oct-19 00:00N 45°39' W 122°45'0 0.0
2017-Oct-18 23:30N 45°39' W 122°45'0 0.0
2017-Oct-18 23:00N 45°39' W 122°45'0 0.0
2017-Oct-18 22:31N 45°39' W 122°45'0 0.0
2017-Oct-18 22:00N 45°39' W 122°45'0 0.0
2017-Oct-18 21:26N 45°39' W 122°45'0 0.0
2017-Oct-18 21:00N 45°39' W 122°45'0 0.0
2017-Oct-18 20:31N 45°39' W 122°45'0 0.0
2017-Oct-18 20:00N 45°39' W 122°45'0 0.0
2017-Oct-18 19:30N 45°39' W 122°45'0 0.0
2017-Oct-18 19:01N 45°39' W 122°45'0 0.0
2017-Oct-18 18:30N 45°39' W 122°45'0 0.0
2017-Oct-18 18:01N 45°39' W 122°45'0 0.0
2017-Oct-18 17:31N 45°39' W 122°45'1 1.9
2017-Oct-18 17:00N 45°39' W 122°46'1 2.2
2017-Oct-18 16:30N 45°38' W 122°47'1 1.9
2017-Oct-18 15:52N 45°39' W 122°46'1 2.1
2017-Oct-18 15:25N 45°39' W 122°45'0 0.0
2017-Oct-18 15:00N 45°39' W 122°45'0 0.0
2017-Oct-18 14:00N 45°39' W 122°45'0 0.0
2017-Oct-18 13:30N 45°39' W 122°45'0 0.0
2017-Oct-18 12:57N 45°39' W 122°45'0 0.0
2017-Oct-18 12:30N 45°39' W 122°45'0 0.0
2017-Oct-18 12:00N 45°39' W 122°45'0 0.0
2017-Oct-18 11:31N 45°39' W 122°45'0 0.0
2017-Oct-18 11:00N 45°39' W 122°45'0 0.0
2017-Oct-18 10:30N 45°39' W 122°45'0 0.0
2017-Oct-18 10:01N 45°39' W 122°45'2 3.8
2017-Oct-18 09:31N 45°38' W 122°47'4 7.9
2017-Oct-18 09:00N 45°34' W 122°45'0 0.2
2017-Oct-18 08:30N 45°34' W 122°44'4 7.8
2017-Oct-18 08:01N 45°38' W 122°47'3 6.8
2017-Oct-18 07:31N 45°41' W 122°47'3 6.8
2017-Oct-18 07:00N 45°44' W 122°46'3 6.8
2017-Oct-18 06:30N 45°48' W 122°47'4 6.4
2017-Oct-18 05:51N 45°52' W 122°47'2 6.2
2017-Oct-18 05:30N 45°54' W 122°48'3 6.3
2017-Oct-18 05:00N 45°57' W 122°48'3 5.1
2017-Oct-18 04:30N 45°59' W 122°50'0 0.1
2017-Oct-18 04:00N 45°59' W 122°50'0 0.0
2017-Oct-18 03:30N 45°59' W 122°50'0 0.0
2017-Oct-18 03:01N 45°59' W 122°50'0 0.0
2017-Oct-18 02:30N 45°59' W 122°50'2 3.1
2017-Oct-18 02:00N 46°01' W 122°51'1 2.7
2017-Oct-18 01:30N 46°02' W 122°52'0 0.0
2017-Oct-18 01:01N 46°02' W 122°52'0 0.0
2017-Oct-18 00:30N 46°02' W 122°52'2 4.2
2017-Oct-18 00:00N 46°04' W 122°53'3 5.2
2017-Oct-17 23:30N 46°05' W 122°56'0 0.0
2017-Oct-17 23:01N 46°05' W 122°56'0 0.0
2017-Oct-17 22:30N 46°05' W 122°56'0 0.0
2017-Oct-17 22:00N 46°05' W 122°56'0 0.0
2017-Oct-17 21:30N 46°05' W 122°56'0 0.0
2017-Oct-17 21:00N 46°05' W 122°56'0 0.0
2017-Oct-17 20:30N 46°05' W 122°56'1 2.3
2017-Oct-17 20:00N 46°06' W 122°57'0 0.0
2017-Oct-17 19:30N 46°06' W 122°57'1 1.1
2017-Oct-17 19:01N 46°06' W 122°56'0 0.1
2017-Oct-17 18:31N 46°06' W 122°56'0 0.0
2017-Oct-17 18:00N 46°06' W 122°56'1 1.3
2017-Oct-17 17:30N 46°05' W 122°56'0 0.0
2017-Oct-17 17:01N 46°05' W 122°56'0 0.0
2017-Oct-17 16:30N 46°05' W 122°56'0 0.0
2017-Oct-17 16:00N 46°05' W 122°56'0 0.0
2017-Oct-17 15:30N 46°05' W 122°56'0 0.0
2017-Oct-17 15:00N 46°05' W 122°56'0 0.0
2017-Oct-17 14:30N 46°05' W 122°56'0 0.0
2017-Oct-17 13:30N 46°05' W 122°56'0 0.0
2017-Oct-17 13:00N 46°05' W 122°56'0 0.0
2017-Oct-17 12:31N 46°05' W 122°56'0 0.0
2017-Oct-17 12:00N 46°05' W 122°56'0 0.0
2017-Oct-17 11:30N 46°05' W 122°56'0 0.0
2017-Oct-17 11:01N 46°05' W 122°56'0 0.0
2017-Oct-17 10:30N 46°05' W 122°56'0 0.0
2017-Oct-17 10:01N 46°05' W 122°56'0 0.0
2017-Oct-17 09:31N 46°05' W 122°56'0 0.0
2017-Oct-17 09:01N 46°05' W 122°56'0 0.0
2017-Oct-17 08:30N 46°05' W 122°56'0 0.0
2017-Oct-17 08:00N 46°05' W 122°56'0 0.0
2017-Oct-17 07:31N 46°05' W 122°56'0 0.0
2017-Oct-17 07:00N 46°05' W 122°56'0 0.0
2017-Oct-17 06:31N 46°05' W 122°56'0 0.0
2017-Oct-17 06:01N 46°05' W 122°56'0 0.0
2017-Oct-17 05:30N 46°05' W 122°56'0 0.0
2017-Oct-17 05:00N 46°05' W 122°56'0 0.0
2017-Oct-17 04:30N 46°05' W 122°56'0 0.0
2017-Oct-17 04:00N 46°05' W 122°56'0 0.0
2017-Oct-17 03:31N 46°05' W 122°56'0 0.0
2017-Oct-17 03:00N 46°05' W 122°56'0 0.0
2017-Oct-17 02:31N 46°05' W 122°56'0 0.0
2017-Oct-17 02:00N 46°05' W 122°56'0 0.0
2017-Oct-17 01:30N 46°05' W 122°56'0 0.0
2017-Oct-17 01:00N 46°05' W 122°56'0 0.0
2017-Oct-17 00:30N 46°05' W 122°56'0 0.0
2017-Oct-17 00:01N 46°05' W 122°56'0 0.0
2017-Oct-16 23:31N 46°05' W 122°56'0 0.0
2017-Oct-16 23:00N 46°05' W 122°56'0 0.0
2017-Oct-16 22:30N 46°05' W 122°56'0 0.0
2017-Oct-16 22:00N 46°05' W 122°56'0 0.0
2017-Oct-16 21:30N 46°05' W 122°56'0 0.0
2017-Oct-16 21:01N 46°05' W 122°56'0 0.0
2017-Oct-16 20:31N 46°05' W 122°56'0 0.0
2017-Oct-16 20:00N 46°05' W 122°56'0 0.0
2017-Oct-16 19:30N 46°05' W 122°56'0 0.0
2017-Oct-16 19:01N 46°05' W 122°56'0 0.0
2017-Oct-16 18:30N 46°05' W 122°56'0 0.0
2017-Oct-16 18:00N 46°05' W 122°56'0 0.0
2017-Oct-16 17:31N 46°05' W 122°56'0 0.0
2017-Oct-16 17:00N 46°05' W 122°56'0 0.0
2017-Oct-16 16:31N 46°05' W 122°56'0 0.0
2017-Oct-16 16:01N 46°05' W 122°56'0 0.0
2017-Oct-16 15:31N 46°05' W 122°56'0 0.0
2017-Oct-16 15:00N 46°05' W 122°56'0 0.0
2017-Oct-16 14:00N 46°05' W 122°56'0 0.0
2017-Oct-16 13:31N 46°05' W 122°56'0 0.0
2017-Oct-16 13:01N 46°05' W 122°56'0 0.0
2017-Oct-16 12:31N 46°05' W 122°56'0 0.0
2017-Oct-16 12:01N 46°05' W 122°56'0 0.0
2017-Oct-16 11:30N 46°05' W 122°56'0 0.0
2017-Oct-16 11:00N 46°05' W 122°56'0 0.0
2017-Oct-16 10:30N 46°05' W 122°56'0 0.0
2017-Oct-16 10:00N 46°05' W 122°56'0 0.0
2017-Oct-16 09:30N 46°05' W 122°56'0 0.0
2017-Oct-16 09:01N 46°05' W 122°56'0 0.0
2017-Oct-16 08:31N 46°05' W 122°56'0 0.0
2017-Oct-16 08:00N 46°05' W 122°56'0 0.0
2017-Oct-16 07:22N 46°05' W 122°56'0 0.0
2017-Oct-16 07:01N 46°05' W 122°56'0 0.0
2017-Oct-16 06:31N 46°05' W 122°56'0 0.0
2017-Oct-16 06:01N 46°05' W 122°56'0 0.0
2017-Oct-16 05:30N 46°05' W 122°56'0 0.0
2017-Oct-16 05:01N 46°05' W 122°56'0 0.0
2017-Oct-16 04:31N 46°05' W 122°56'1 3.0
2017-Oct-16 04:00N 46°06' W 122°58'1 1.6
2017-Oct-16 03:31N 46°06' W 122°57'0 0.3
2017-Oct-16 03:00N 46°06' W 122°57'0 0.3
2017-Oct-16 02:30N 46°06' W 122°57'0 0.3
2017-Oct-16 02:00N 46°06' W 122°56'0 0.8
2017-Oct-16 01:31N 46°06' W 122°57'0 0.8
2017-Oct-16 01:00N 46°06' W 122°56'0 0.2
2017-Oct-16 00:31N 46°06' W 122°56'0 0.3
2017-Oct-16 00:01N 46°06' W 122°56'0 0.0
2017-Oct-15 23:30N 46°06' W 122°56'0 0.0
2017-Oct-15 23:00N 46°06' W 122°56'0 0.0
2017-Oct-15 22:31N 46°06' W 122°56'0 0.1
2017-Oct-15 22:00N 46°06' W 122°56'0 0.0
2017-Oct-15 21:31N 46°06' W 122°56'0 0.5
2017-Oct-15 21:00N 46°06' W 122°57'1 2.7
2017-Oct-15 20:30N 46°07' W 122°58'1 1.7
2017-Oct-15 20:00N 46°06' W 122°57'1 1.0
2017-Oct-15 19:25N 46°06' W 122°57'1 1.8
2017-Oct-15 19:00N 46°05' W 122°56'0 0.0
2017-Oct-15 18:30N 46°05' W 122°56'3 6.7
2017-Oct-15 18:01N 46°03' W 122°53'1 2.9
2017-Oct-15 17:30N 46°02' W 122°52'0 0.3
2017-Oct-15 17:00N 46°02' W 122°52'1 3.0
2017-Oct-15 16:31N 46°00' W 122°51'1 2.9
2017-Oct-15 16:00N 45°59' W 122°50'0 0.0
2017-Oct-15 15:30N 45°59' W 122°50'0 0.0
2017-Oct-15 15:00N 45°59' W 122°50'0 0.0
2017-Oct-15 13:54N 45°59' W 122°50'0 0.0
2017-Oct-15 13:31N 45°59' W 122°50'0 0.0
2017-Oct-15 13:00N 45°59' W 122°50'0 0.0
2017-Oct-15 12:30N 45°59' W 122°50'0 0.0
2017-Oct-15 12:00N 45°59' W 122°50'0 0.0
2017-Oct-15 11:30N 45°59' W 122°50'0 0.0
2017-Oct-15 11:00N 45°59' W 122°50'0 0.0
2017-Oct-15 10:30N 45°59' W 122°50'0 0.0
2017-Oct-15 10:01N 45°59' W 122°50'0 0.0
2017-Oct-15 09:31N 45°59' W 122°50'0 0.0
2017-Oct-15 09:01N 45°59' W 122°50'0 0.0
2017-Oct-15 08:30N 45°59' W 122°50'0 0.0
2017-Oct-15 08:01N 45°59' W 122°50'0 0.0
2017-Oct-15 07:30N 45°59' W 122°50'0 0.0
2017-Oct-15 07:00N 45°59' W 122°50'0 0.0
2017-Oct-15 06:30N 45°59' W 122°50'0 0.1
2017-Oct-15 06:00N 45°59' W 122°50'0 0.0
2017-Oct-15 05:30N 45°59' W 122°50'0 0.0
2017-Oct-15 05:00N 45°59' W 122°50'0 0.0
2017-Oct-15 04:30N 45°59' W 122°50'0 0.0
2017-Oct-15 04:01N 45°59' W 122°50'0 0.0
2017-Oct-15 03:30N 45°59' W 122°50'0 0.0
2017-Oct-15 03:00N 45°59' W 122°50'0 0.0
2017-Oct-15 02:30N 45°59' W 122°50'0 0.0
2017-Oct-15 01:41N 45°59' W 122°50'0 0.0
2017-Oct-15 01:20N 45°59' W 122°50'0 0.0
2017-Oct-15 01:01N 45°59' W 122°50'0 0.0
2017-Oct-15 00:30N 45°59' W 122°50'0 0.0
2017-Oct-15 00:00N 45°59' W 122°50'0 0.0
2017-Oct-14 23:31N 45°59' W 122°50'0 0.0
2017-Oct-14 22:53N 45°59' W 122°50'0 0.2
2017-Oct-14 22:30N 45°59' W 122°50'0 0.4
2017-Oct-14 22:00N 45°59' W 122°50'4 8.3
2017-Oct-14 21:30N 45°55' W 122°49'4 8.1
2017-Oct-14 21:00N 45°51' W 122°47'4 7.6
2017-Oct-14 20:31N 45°47' W 122°47'4 7.8
2017-Oct-14 20:00N 45°44' W 122°46'4 7.8
2017-Oct-14 19:31N 45°40' W 122°46'1 2.5
2017-Oct-14 19:00N 45°39' W 122°45'3 7.0
2017-Oct-14 18:30N 45°42' W 122°46'3 6.7
2017-Oct-14 18:00N 45°45' W 122°46'3 6.6
2017-Oct-14 17:31N 45°48' W 122°48'3 6.2
2017-Oct-14 17:01N 45°52' W 122°47'3 6.1
2017-Oct-14 16:31N 45°54' W 122°49'3 5.9
2017-Oct-14 16:00N 45°57' W 122°49'3 6.8
2017-Oct-14 15:30N 46°00' W 122°51'1 2.4
2017-Oct-14 15:01N 46°01' W 122°52'3 6.8
2017-Oct-14 14:30N 46°05' W 122°54'2 4.7
2017-Oct-14 14:01N 46°06' W 122°57'0 0.6
2017-Oct-14 13:30N 46°06' W 122°57'2 4.2
2017-Oct-14 13:01N 46°07' W 122°59'2 3.1
2017-Oct-14 12:31N 46°06' W 122°58'0 0.0
2017-Oct-14 12:01N 46°06' W 122°58'0 0.1
2017-Oct-14 11:30N 46°06' W 122°58'0 0.0
2017-Oct-14 11:00N 46°06' W 122°58'0 0.0
2017-Oct-14 10:31N 46°06' W 122°58'0 0.0
2017-Oct-14 10:01N 46°06' W 122°58'0 0.0
2017-Oct-14 09:30N 46°06' W 122°58'0 0.0
2017-Oct-14 09:01N 46°06' W 122°58'0 0.0
2017-Oct-14 08:31N 46°06' W 122°58'0 0.0
2017-Oct-14 08:00N 46°06' W 122°58'0 0.1
2017-Oct-14 07:30N 46°06' W 122°58'3 5.1
2017-Oct-14 07:01N 46°08' W 123°00'4 8.0
2017-Oct-14 06:30N 46°10' W 123°05'4 7.6
2017-Oct-14 06:00N 46°11' W 123°11'0 0.2
2017-Oct-14 05:30N 46°11' W 123°11'3 6.4
2017-Oct-14 05:00N 46°11' W 123°06'5 8.3
2017-Oct-14 04:27N 46°08' W 123°01'3 6.1
2017-Oct-14 04:00N 46°06' W 122°58'0 0.2
2017-Oct-14 03:21N 46°06' W 122°57'1 4.2
2017-Oct-14 03:01N 46°05' W 122°56'0 0.0
2017-Oct-14 02:30N 46°05' W 122°56'0 0.0
2017-Oct-14 02:00N 46°05' W 122°56'0 0.0
2017-Oct-14 01:30N 46°05' W 122°56'0 0.0
2017-Oct-14 01:00N 46°05' W 122°56'0 0.0
2017-Oct-14 00:31N 46°05' W 122°56'0 0.0
2017-Oct-14 00:00N 46°05' W 122°56'0 0.0
2017-Oct-13 23:31N 46°05' W 122°56'0 0.0
2017-Oct-13 23:00N 46°05' W 122°56'0 0.0
2017-Oct-13 22:30N 46°05' W 122°56'0 0.0
2017-Oct-13 22:00N 46°05' W 122°56'0 0.0
2017-Oct-13 21:16N 46°05' W 122°56'0 0.0
2017-Oct-13 21:00N 46°05' W 122°56'0 0.0
2017-Oct-13 20:30N 46°05' W 122°56'0 0.0
2017-Oct-13 20:00N 46°05' W 122°56'4 7.2
2017-Oct-13 19:30N 46°02' W 122°53'4 8.1
2017-Oct-13 19:01N 45°59' W 122°50'0 0.3
2017-Oct-13 18:21N 45°59' W 122°50'0 0.1
2017-Oct-13 18:00N 45°59' W 122°50'0 0.1
2017-Oct-13 17:14N 45°59' W 122°50'0 0.1
2017-Oct-13 17:00N 45°59' W 122°50'0 0.0
2017-Oct-13 16:31N 45°59' W 122°50'0 0.0
2017-Oct-13 16:01N 45°59' W 122°50'0 0.2
2017-Oct-13 15:30N 45°59' W 122°50'0 0.1
2017-Oct-13 15:00N 45°59' W 122°50'0 0.0
2017-Oct-13 14:30N 45°59' W 122°50'3 4.1
2017-Oct-13 13:51N 46°01' W 122°52'0 1.0
2017-Oct-13 13:30N 46°02' W 122°53'0 0.3
2017-Oct-13 12:50N 46°02' W 122°52'0 0.3
2017-Oct-13 12:30N 46°02' W 122°52'0 0.0
2017-Oct-13 11:56N 46°02' W 122°52'0 0.0
2017-Oct-13 11:30N 46°02' W 122°52'4 7.6
2017-Oct-13 11:00N 45°58' W 122°50'611.1
2017-Oct-13 10:30N 45°53' W 122°48'510.7
2017-Oct-13 10:00N 45°48' W 122°47'810.4
2017-Oct-13 09:15N 45°40' W 122°46'1 6.1
2017-Oct-13 09:01N 45°39' W 122°45'0 0.2
2017-Oct-13 08:30N 45°39' W 122°45'  

Dump ship's entire track history